createdAt,value
2018-03-07T00:00:58.120Z,2.40
2018-03-07T00:03:24.600Z,2.40
2018-03-07T00:05:51.642Z,2.40
2018-03-07T00:08:18.195Z,2.50
2018-03-07T00:10:45.153Z,2.60
2018-03-07T00:13:11.508Z,2.60
2018-03-07T00:15:38.601Z,2.60
2018-03-07T00:18:04.967Z,2.50
2018-03-07T00:20:31.782Z,2.50
2018-03-07T00:22:58.743Z,2.40
2018-03-07T00:25:26.104Z,2.40
2018-03-07T00:27:52.530Z,2.30
2018-03-07T00:30:20.050Z,2.30
2018-03-07T00:32:46.370Z,2.30
2018-03-07T00:35:12.570Z,2.30
2018-03-07T00:37:38.764Z,2.30
2018-03-07T00:40:06.166Z,2.20
2018-03-07T00:42:33.337Z,2.20
2018-03-07T00:45:00.126Z,2.00
2018-03-07T00:47:26.893Z,2.00
2018-03-07T00:49:54.130Z,2.00
2018-03-07T00:52:20.357Z,2.10
2018-03-07T00:54:46.554Z,2.20
2018-03-07T00:57:13.503Z,2.40
2018-03-07T00:59:40.464Z,2.30
2018-03-07T01:02:07.195Z,2.30
2018-03-07T01:04:34.483Z,2.50
2018-03-07T01:07:01.560Z,2.50
2018-03-07T01:09:28.631Z,2.50
2018-03-07T01:11:55.684Z,2.50
2018-03-07T01:14:22.643Z,2.50
2018-03-07T01:16:49.125Z,2.50
2018-03-07T01:19:16.111Z,2.60
2018-03-07T01:21:43.555Z,2.70
2018-03-07T01:24:11.198Z,2.70
2018-03-07T01:26:37.616Z,2.70
2018-03-07T01:29:04.122Z,2.70
2018-03-07T01:31:30.653Z,2.70
2018-03-07T01:33:56.863Z,2.70
2018-03-07T01:36:24.583Z,2.80
2018-03-07T01:38:51.824Z,2.90
2018-03-07T01:41:18.783Z,2.90
2018-03-07T01:43:45.869Z,2.80
2018-03-07T01:46:13.782Z,2.90
2018-03-07T01:48:40.920Z,2.80
2018-03-07T01:51:07.151Z,2.80
2018-03-07T01:53:33.836Z,2.90
2018-03-07T01:56:00.805Z,3.00
2018-03-07T01:58:27.030Z,2.90
2018-03-07T02:00:54.108Z,3.00
2018-03-07T02:03:21.169Z,2.90
2018-03-07T02:05:47.655Z,2.90
2018-03-07T02:08:14.320Z,2.90
2018-03-07T02:10:41.341Z,2.90
2018-03-07T02:13:08.152Z,2.90
2018-03-07T02:15:34.680Z,3.00
2018-03-07T02:18:02.070Z,2.90
2018-03-07T02:20:29.662Z,2.90
2018-03-07T02:22:56.456Z,2.80
2018-03-07T02:25:23.499Z,2.80
2018-03-07T02:27:50.827Z,2.90
2018-03-07T02:30:17.707Z,2.90
2018-03-07T02:32:45.486Z,3.00
2018-03-07T02:35:11.721Z,3.00
2018-03-07T02:37:38.912Z,3.00
2018-03-07T02:40:05.468Z,2.90
2018-03-07T02:42:33.109Z,2.90
2018-03-07T02:44:59.333Z,2.90
2018-03-07T02:47:25.547Z,2.90
2018-03-07T02:49:51.739Z,2.90
2018-03-07T02:52:18.118Z,2.90
2018-03-07T02:54:44.584Z,2.90
2018-03-07T02:57:11.668Z,2.90
2018-03-07T02:59:38.240Z,2.90
2018-03-07T03:02:04.471Z,2.90
2018-03-07T03:04:31.296Z,2.90
2018-03-07T03:06:57.519Z,2.90
2018-03-07T03:09:23.859Z,2.90
2018-03-07T03:11:50.273Z,2.80
2018-03-07T03:14:17.294Z,2.90
2018-03-07T03:16:43.506Z,2.90
2018-03-07T03:19:11.072Z,2.90
2018-03-07T03:21:39.289Z,2.90
2018-03-07T03:24:05.740Z,2.90
2018-03-07T03:26:33.348Z,2.90
2018-03-07T03:29:00.093Z,2.90
2018-03-07T03:31:26.834Z,2.90
2018-03-07T03:33:53.139Z,2.90
2018-03-07T03:36:20.078Z,3.00
2018-03-07T03:38:47.122Z,3.00
2018-03-07T03:41:13.321Z,3.00
2018-03-07T03:43:39.861Z,3.00
2018-03-07T03:46:06.820Z,2.90
2018-03-07T03:48:33.236Z,2.90
2018-03-07T03:51:00.794Z,2.90
2018-03-07T03:53:28.461Z,3.00
2018-03-07T03:55:55.200Z,3.00
2018-03-07T03:58:21.410Z,3.00
2018-03-07T04:00:47.627Z,2.90
2018-03-07T04:03:13.930Z,3.00
2018-03-07T04:05:40.282Z,2.90
2018-03-07T04:08:06.712Z,2.90
2018-03-07T04:10:33.530Z,2.90
2018-03-07T04:13:00.463Z,2.90
2018-03-07T04:15:27.440Z,2.90
2018-03-07T04:17:53.642Z,2.90
2018-03-07T04:20:20.773Z,2.80
2018-03-07T04:22:47.167Z,2.80
2018-03-07T04:25:13.391Z,2.80
2018-03-07T04:27:40.083Z,2.90
2018-03-07T04:30:09.766Z,3.00
2018-03-07T04:32:36.139Z,3.00
2018-03-07T04:35:02.900Z,3.10
2018-03-07T04:37:29.675Z,3.10
2018-03-07T04:39:56.413Z,3.10
2018-03-07T04:42:23.176Z,3.10
2018-03-07T04:44:49.406Z,3.10
2018-03-07T04:47:16.334Z,3.20
2018-03-07T04:49:42.525Z,3.20
2018-03-07T04:52:08.847Z,3.20
2018-03-07T04:54:35.713Z,3.20
2018-03-07T04:57:02.259Z,3.20
2018-03-07T04:59:29.470Z,3.40
2018-03-07T05:01:55.671Z,3.30
2018-03-07T05:04:23.764Z,3.30
2018-03-07T05:06:49.950Z,3.30
2018-03-07T05:09:16.143Z,3.30
2018-03-07T05:11:42.780Z,3.40
2018-03-07T05:14:09.783Z,3.40
2018-03-07T05:16:37.318Z,3.40
2018-03-07T05:19:04.065Z,3.40
2018-03-07T05:21:31.522Z,3.40
2018-03-07T05:23:57.709Z,3.40
2018-03-07T05:26:25.262Z,3.40
2018-03-07T05:28:52.975Z,3.40
2018-03-07T05:31:19.289Z,3.30
2018-03-07T05:33:46.041Z,3.40
2018-03-07T05:36:12.439Z,3.40
2018-03-07T05:38:38.810Z,3.40
2018-03-07T05:41:06.171Z,3.40
2018-03-07T05:43:33.434Z,3.40
2018-03-07T05:45:59.733Z,3.40
2018-03-07T05:48:26.517Z,3.40
2018-03-07T05:50:52.751Z,3.40
2018-03-07T05:53:19.520Z,3.40
2018-03-07T05:55:45.725Z,3.40
2018-03-07T05:58:11.919Z,3.50
2018-03-07T06:00:39.609Z,3.40
2018-03-07T06:03:06.798Z,3.40
2018-03-07T06:05:32.980Z,3.40
2018-03-07T06:07:59.750Z,3.40
2018-03-07T06:10:25.951Z,3.40
2018-03-07T06:12:52.204Z,3.40
2018-03-07T06:15:18.605Z,3.50
2018-03-07T06:17:45.205Z,3.50
2018-03-07T06:20:12.635Z,3.60
2018-03-07T06:22:40.825Z,3.60
2018-03-07T06:25:08.099Z,3.50
2018-03-07T06:27:35.926Z,3.50
2018-03-07T06:30:02.495Z,3.50
2018-03-07T06:32:29.843Z,3.60
2018-03-07T06:34:56.101Z,3.60
2018-03-07T06:37:22.338Z,3.60
2018-03-07T06:39:48.598Z,3.60
2018-03-07T06:42:14.852Z,3.70
2018-03-07T06:44:41.135Z,3.70
2018-03-07T06:47:07.468Z,3.70
2018-03-07T06:49:33.707Z,3.70
2018-03-07T06:52:00.538Z,3.70
2018-03-07T06:54:27.421Z,3.80
2018-03-07T06:56:54.578Z,3.80
2018-03-07T06:59:21.642Z,3.80
2018-03-07T07:01:48.650Z,3.80
2018-03-07T07:04:17.051Z,3.80
2018-03-07T07:16:24.824Z,3.80
2018-03-07T07:18:51.856Z,3.80
2018-03-07T07:21:18.249Z,3.80
2018-03-07T07:23:44.877Z,3.80
2018-03-07T07:26:11.822Z,3.80
2018-03-07T07:28:39.652Z,3.80
2018-03-07T07:31:07.698Z,3.80
2018-03-07T07:33:34.059Z,3.90
2018-03-07T07:36:00.327Z,3.90
2018-03-07T07:38:26.619Z,4.00
2018-03-07T07:40:53.432Z,4.10
2018-03-07T07:43:20.661Z,4.10
2018-03-07T07:45:47.195Z,4.20
2018-03-07T07:48:13.388Z,4.20
2018-03-07T07:50:40.091Z,4.30
2018-03-07T07:53:07.437Z,4.50
2018-03-07T07:55:34.914Z,4.50
2018-03-07T07:58:02.187Z,4.50
2018-03-07T08:00:29.772Z,4.50
2018-03-07T08:02:57.009Z,4.50
2018-03-07T08:05:23.928Z,4.50
2018-03-07T08:07:50.117Z,4.50
2018-03-07T08:10:16.432Z,4.60
2018-03-07T08:12:44.167Z,4.70
2018-03-07T08:15:10.359Z,4.80
2018-03-07T08:17:37.347Z,5.00
2018-03-07T08:20:03.581Z,5.00
2018-03-07T08:22:29.804Z,5.20
2018-03-07T08:24:56.260Z,5.30
2018-03-07T08:27:23.645Z,5.40
2018-03-07T08:29:50.624Z,5.40
2018-03-07T08:32:16.979Z,5.40
2018-03-07T08:34:44.823Z,5.50
2018-03-07T08:37:12.162Z,5.60
2018-03-07T08:39:38.542Z,5.60
2018-03-07T08:42:04.753Z,5.60
2018-03-07T08:44:31.989Z,5.60
2018-03-07T08:46:58.764Z,5.60
2018-03-07T08:49:25.942Z,5.60
2018-03-07T08:51:53.036Z,5.60
2018-03-07T08:54:19.310Z,5.50
2018-03-07T08:56:47.823Z,5.60
2018-03-07T08:59:15.117Z,5.60
2018-03-07T09:01:41.360Z,5.60
2018-03-07T09:04:08.148Z,5.60
2018-03-07T09:06:34.612Z,5.60
2018-03-07T09:09:01.858Z,5.60
2018-03-07T09:11:28.952Z,5.60
2018-03-07T09:13:55.201Z,5.60
2018-03-07T09:16:22.784Z,5.50
2018-03-07T09:18:50.058Z,5.60
2018-03-07T09:21:17.054Z,5.60
2018-03-07T09:23:44.008Z,5.70
2018-03-07T09:26:10.608Z,5.60
2018-03-07T09:28:38.549Z,5.60
2018-03-07T09:31:05.263Z,5.60
2018-03-07T09:33:32.021Z,5.50
2018-03-07T09:35:58.402Z,5.40
2018-03-07T09:38:25.442Z,5.50
2018-03-07T09:40:51.833Z,5.50
2018-03-07T09:43:18.042Z,5.60
2018-03-07T09:45:44.586Z,5.60
2018-03-07T09:48:11.019Z,5.60
2018-03-07T09:50:38.057Z,5.60
2018-03-07T09:53:04.846Z,5.60
2018-03-07T09:55:31.351Z,5.60
2018-03-07T09:57:58.091Z,5.70
2018-03-07T10:00:29.822Z,5.80
2018-03-07T10:02:57.804Z,5.90
2018-03-07T10:05:30.286Z,5.90
2018-03-07T10:07:56.580Z,6.00
2018-03-07T10:10:23.805Z,6.10
2018-03-07T10:12:50.848Z,6.10
2018-03-07T10:15:17.664Z,6.10
2018-03-07T10:17:44.177Z,6.20
2018-03-07T10:20:11.201Z,6.30
2018-03-07T10:22:39.422Z,6.40
2018-03-07T10:25:06.419Z,6.40
2018-03-07T10:27:33.542Z,6.50
2018-03-07T10:30:00.449Z,6.50
2018-03-07T10:32:26.838Z,6.50
2018-03-07T10:34:53.813Z,6.60
2018-03-07T10:37:20.522Z,6.60
2018-03-07T10:39:48.119Z,6.70
2018-03-07T10:42:14.910Z,6.70
2018-03-07T10:44:42.026Z,6.70
2018-03-07T10:47:09.816Z,6.80
2018-03-07T10:49:36.213Z,6.80
2018-03-07T10:52:02.413Z,6.90
2018-03-07T10:54:28.662Z,7.00
2018-03-07T10:56:55.637Z,7.20
2018-03-07T10:59:22.016Z,7.30
2018-03-07T11:01:49.176Z,7.30
2018-03-07T11:04:15.429Z,7.30
2018-03-07T11:06:42.207Z,7.30
2018-03-07T11:09:08.562Z,7.40
2018-03-07T11:11:34.799Z,7.50
2018-03-07T11:14:01.239Z,7.60
2018-03-07T11:16:28.949Z,7.70
2018-03-07T11:18:55.149Z,7.60
2018-03-07T11:21:22.566Z,7.80
2018-03-07T11:23:50.293Z,7.90
2018-03-07T11:26:16.842Z,7.80
2018-03-07T11:28:43.223Z,7.90
2018-03-07T11:31:09.436Z,8.00
2018-03-07T11:33:36.061Z,8.10
2018-03-07T11:36:03.498Z,8.00
2018-03-07T11:38:30.629Z,8.20
2018-03-07T11:40:56.830Z,8.20
2018-03-07T11:43:23.236Z,8.30
2018-03-07T11:45:49.604Z,8.50
2018-03-07T11:48:16.352Z,8.60
2018-03-07T11:50:42.567Z,8.90
2018-03-07T11:53:09.355Z,9.20
2018-03-07T11:55:36.201Z,9.50
2018-03-07T11:58:02.555Z,9.60
2018-03-07T12:00:29.585Z,9.70
2018-03-07T12:02:56.690Z,9.70
2018-03-07T12:05:23.447Z,9.90
2018-03-07T12:07:50.384Z,10.40
2018-03-07T12:10:16.802Z,10.30
2018-03-07T12:12:42.998Z,10.40
2018-03-07T12:15:09.738Z,10.40
2018-03-07T12:17:35.960Z,10.30
2018-03-07T12:20:02.200Z,10.40
2018-03-07T12:22:28.613Z,10.50
2018-03-07T12:24:55.485Z,10.60
2018-03-07T12:27:23.050Z,10.70
2018-03-07T12:29:49.299Z,10.70
2018-03-07T12:32:16.139Z,10.50
2018-03-07T12:34:42.440Z,10.50
2018-03-07T12:37:09.265Z,10.40
2018-03-07T12:39:36.536Z,10.30
2018-03-07T12:42:03.303Z,10.30
2018-03-07T12:44:29.744Z,10.30
2018-03-07T12:46:55.939Z,10.20
2018-03-07T12:49:22.822Z,10.10
2018-03-07T12:51:50.695Z,10.00
2018-03-07T12:54:18.187Z,10.00
2018-03-07T12:56:45.353Z,10.00
2018-03-07T12:59:12.172Z,10.00
2018-03-07T13:01:38.401Z,10.00
2018-03-07T13:04:04.596Z,10.00
2018-03-07T13:06:31.987Z,10.10
2018-03-07T13:08:58.396Z,10.10
2018-03-07T13:11:24.591Z,10.10
2018-03-07T13:13:50.827Z,10.00
2018-03-07T13:16:19.072Z,10.00
2018-03-07T13:18:45.466Z,10.00
2018-03-07T13:21:11.949Z,10.00
2018-03-07T13:23:38.171Z,10.10
2018-03-07T13:26:04.407Z,10.10
2018-03-07T13:28:31.363Z,10.10
2018-03-07T13:30:57.575Z,10.00
2018-03-07T13:33:24.946Z,10.00
2018-03-07T13:35:52.233Z,9.90
2018-03-07T13:38:19.454Z,9.80
2018-03-07T13:40:45.799Z,9.80
2018-03-07T13:43:12.777Z,9.70
2018-03-07T13:45:39.910Z,9.60
2018-03-07T13:48:06.431Z,9.60
2018-03-07T13:50:33.962Z,9.40
2018-03-07T13:53:00.271Z,9.40
2018-03-07T13:55:26.632Z,9.40
2018-03-07T13:57:53.035Z,9.40
2018-03-07T14:00:19.909Z,9.30
2018-03-07T14:02:47.528Z,9.20
2018-03-07T14:05:14.279Z,9.10
2018-03-07T14:07:40.502Z,9.20
2018-03-07T14:10:07.938Z,9.20
2018-03-07T14:12:35.049Z,9.20
2018-03-07T14:15:01.720Z,9.20
2018-03-07T14:17:29.069Z,9.30
2018-03-07T14:19:55.307Z,9.20
2018-03-07T14:22:21.623Z,9.20
2018-03-07T14:24:49.830Z,9.10
2018-03-07T14:27:16.123Z,9.10
2018-03-07T14:29:42.523Z,9.10
2018-03-07T14:32:09.952Z,9.40
2018-03-07T14:34:37.193Z,9.60
2018-03-07T14:37:03.504Z,9.50
2018-03-07T14:39:29.787Z,9.70
2018-03-07T14:41:56.146Z,9.70
2018-03-07T14:44:23.066Z,9.80
2018-03-07T14:46:50.101Z,9.80
2018-03-07T14:49:16.983Z,9.80
2018-03-07T14:51:43.239Z,9.90
2018-03-07T14:54:09.481Z,10.00
2018-03-07T14:56:35.679Z,10.10
2018-03-07T14:59:01.948Z,10.20
2018-03-07T15:01:28.658Z,10.10
2018-03-07T15:03:55.134Z,10.00
2018-03-07T15:06:21.335Z,10.00
2018-03-07T15:08:49.138Z,10.00
2018-03-07T15:11:16.115Z,10.00
2018-03-07T15:13:42.343Z,9.90
2018-03-07T15:16:09.031Z,10.00
2018-03-07T15:18:36.037Z,10.00
2018-03-07T15:21:02.793Z,9.90
2018-03-07T15:23:29.029Z,10.00
2018-03-07T15:25:56.251Z,9.80
2018-03-07T15:28:23.197Z,9.70
2018-03-07T15:30:50.541Z,9.60
2018-03-07T15:33:17.619Z,9.60
2018-03-07T15:35:43.855Z,9.60
2018-03-07T15:38:10.331Z,9.70
2018-03-07T15:40:37.311Z,9.80
2018-03-07T15:43:04.009Z,9.70
2018-03-07T15:45:31.263Z,9.90
2018-03-07T15:47:58.879Z,9.80
2018-03-07T15:50:25.103Z,9.80
2018-03-07T15:52:51.873Z,9.80
2018-03-07T15:55:18.153Z,9.90
2018-03-07T15:57:44.377Z,9.90
2018-03-07T16:00:11.258Z,9.90
2018-03-07T16:02:38.597Z,9.90
2018-03-07T16:05:05.904Z,9.90
2018-03-07T16:07:32.654Z,9.80
2018-03-07T16:09:59.246Z,9.90
2018-03-07T16:12:25.634Z,9.90
2018-03-07T16:14:51.871Z,9.90
2018-03-07T16:17:18.107Z,9.90
2018-03-07T16:19:44.752Z,9.90
2018-03-07T16:22:11.786Z,9.80
2018-03-07T16:24:38.333Z,9.80
2018-03-07T16:27:05.804Z,9.70
2018-03-07T16:29:32.997Z,9.50
2018-03-07T16:32:00.516Z,9.40
2018-03-07T16:34:27.007Z,9.40
2018-03-07T16:36:54.322Z,9.40
2018-03-07T16:39:20.532Z,9.40
2018-03-07T16:41:47.016Z,9.40
2018-03-07T16:44:14.836Z,9.30
2018-03-07T16:46:41.604Z,9.30
2018-03-07T16:49:08.587Z,9.20
2018-03-07T16:51:35.291Z,9.20
2018-03-07T16:54:01.558Z,9.20
2018-03-07T16:56:28.399Z,9.10
2018-03-07T16:58:54.942Z,9.10
2018-03-07T17:01:22.930Z,8.80
2018-03-07T17:03:50.450Z,8.80
2018-03-07T17:06:17.042Z,8.60
2018-03-07T17:08:44.556Z,8.50
2018-03-07T17:11:10.810Z,8.50
2018-03-07T17:13:37.640Z,8.30
2018-03-07T17:16:04.318Z,8.30
2018-03-07T17:18:31.419Z,8.00
2018-03-07T17:20:58.294Z,8.00
2018-03-07T17:23:25.031Z,7.90
2018-03-07T17:25:51.633Z,7.90
2018-03-07T17:28:19.533Z,7.80
2018-03-07T17:30:45.848Z,7.70
2018-03-07T17:33:12.653Z,7.80
2018-03-07T17:35:39.782Z,7.60
2018-03-07T17:38:06.825Z,7.50
2018-03-07T17:40:34.343Z,7.30
2018-03-07T17:43:01.335Z,7.30
2018-03-07T17:45:28.681Z,7.20
2018-03-07T17:47:56.172Z,7.10
2018-03-07T17:50:23.454Z,7.10
2018-03-07T17:52:50.393Z,7.10
2018-03-07T17:55:17.399Z,7.00
2018-03-07T17:57:44.277Z,7.00
2018-03-07T18:00:11.093Z,6.90
2018-03-07T18:02:37.315Z,7.00
2018-03-07T18:05:04.079Z,7.10
2018-03-07T18:07:30.820Z,7.10
2018-03-07T18:09:57.086Z,7.10
2018-03-07T18:12:23.967Z,7.10
2018-03-07T18:14:51.033Z,7.10
2018-03-07T18:17:17.215Z,7.10
2018-03-07T18:19:44.167Z,6.90
2018-03-07T18:22:11.248Z,6.80
2018-03-07T18:24:38.998Z,6.80
2018-03-07T18:27:05.932Z,6.90
2018-03-07T18:29:32.678Z,6.80
2018-03-07T18:31:59.439Z,6.80
2018-03-07T18:34:25.667Z,6.70
2018-03-07T18:36:52.676Z,6.70
2018-03-07T18:39:19.641Z,6.60
2018-03-07T18:41:46.031Z,6.60
2018-03-07T18:44:12.595Z,6.50
2018-03-07T18:46:40.260Z,6.50
2018-03-07T18:49:07.351Z,6.50
2018-03-07T18:51:34.107Z,6.50
2018-03-07T18:54:00.490Z,6.50
2018-03-07T18:56:26.713Z,6.50
2018-03-07T18:58:53.274Z,6.50
2018-03-07T19:01:20.924Z,6.50
2018-03-07T19:03:47.970Z,6.40
2018-03-07T19:06:15.056Z,6.40
2018-03-07T19:08:42.300Z,6.40
2018-03-07T19:11:08.624Z,6.40
2018-03-07T19:13:34.822Z,6.30
2018-03-07T19:16:01.598Z,6.30
2018-03-07T19:18:27.878Z,6.30
2018-03-07T19:20:55.401Z,6.30
2018-03-07T19:23:22.461Z,6.30
2018-03-07T19:25:48.971Z,6.30
2018-03-07T19:28:15.992Z,6.20
2018-03-07T19:30:43.251Z,6.20
2018-03-07T19:33:09.863Z,6.20
2018-03-07T19:35:36.233Z,6.10
2018-03-07T19:38:02.737Z,6.10
2018-03-07T19:40:28.968Z,6.00
2018-03-07T19:42:58.677Z,6.00
2018-03-07T19:45:27.323Z,6.00
2018-03-07T19:47:53.904Z,5.90
2018-03-07T19:50:21.874Z,5.60
2018-03-07T19:52:48.516Z,5.60
2018-03-07T19:55:16.624Z,5.50
2018-03-07T19:57:44.367Z,5.50
2018-03-07T20:00:11.524Z,5.40
2018-03-07T20:02:39.150Z,5.20
2018-03-07T20:05:05.490Z,5.20
2018-03-07T20:07:32.047Z,5.10
2018-03-07T20:09:59.047Z,4.90
2018-03-07T20:12:25.279Z,4.80
2018-03-07T20:14:52.612Z,4.70
2018-03-07T20:17:20.181Z,4.60
2018-03-07T20:19:47.422Z,4.70
2018-03-07T20:22:14.538Z,4.50
2018-03-07T20:24:40.904Z,4.50
2018-03-07T20:27:08.152Z,4.50
2018-03-07T20:29:35.150Z,4.50
2018-03-07T20:32:01.918Z,4.50
2018-03-07T20:34:29.377Z,4.40
2018-03-07T20:36:55.800Z,4.40
2018-03-07T20:39:22.707Z,4.40
2018-03-07T20:41:48.950Z,4.40
2018-03-07T20:44:15.844Z,4.50
2018-03-07T20:46:43.006Z,4.40
2018-03-07T20:49:10.032Z,4.30
2018-03-07T20:51:36.996Z,4.30
2018-03-07T20:54:05.097Z,4.30
2018-03-07T20:56:31.927Z,4.30
2018-03-07T20:58:59.047Z,4.30
2018-03-07T21:01:26.342Z,4.30
2018-03-07T21:03:53.377Z,4.20
2018-03-07T21:06:19.608Z,4.20
2018-03-07T21:08:46.639Z,4.20
2018-03-07T21:11:13.669Z,4.10
2018-03-07T21:13:40.867Z,4.00
2018-03-07T21:16:07.216Z,4.00
2018-03-07T21:18:34.058Z,4.00
2018-03-07T21:21:01.380Z,4.00
2018-03-07T21:23:28.426Z,3.90
2018-03-07T21:25:54.789Z,3.90
2018-03-07T21:28:21.671Z,3.90
2018-03-07T21:30:48.776Z,3.80
2018-03-07T21:33:15.382Z,3.80
2018-03-07T21:35:42.409Z,3.90
2018-03-07T21:38:09.892Z,3.90
2018-03-07T21:40:37.224Z,3.90
2018-03-07T21:43:04.044Z,3.90
2018-03-07T21:45:31.023Z,3.90
2018-03-07T21:47:57.230Z,3.90
2018-03-07T21:50:24.704Z,3.90
2018-03-07T21:52:50.924Z,3.90
2018-03-07T21:55:17.787Z,3.80
2018-03-07T21:57:45.054Z,3.70
2018-03-07T22:00:12.587Z,3.70
2018-03-07T22:02:40.451Z,3.50
2018-03-07T22:05:06.858Z,3.50
2018-03-07T22:07:33.708Z,3.50
2018-03-07T22:10:01.092Z,3.50
2018-03-07T22:12:27.860Z,3.40
2018-03-07T22:14:58.971Z,3.50
2018-03-07T22:17:25.711Z,3.50
2018-03-07T22:19:52.594Z,3.40
2018-03-07T22:22:18.945Z,3.50
2018-03-07T22:24:45.923Z,3.50
2018-03-07T22:27:13.507Z,3.40
2018-03-07T22:29:41.023Z,3.30
2018-03-07T22:32:08.696Z,3.30
2018-03-07T22:34:35.606Z,3.20
2018-03-07T22:37:02.413Z,3.20
2018-03-07T22:39:29.945Z,3.20
2018-03-07T22:41:57.112Z,3.00
2018-03-07T22:44:24.131Z,3.10
2018-03-07T22:46:51.014Z,3.00
2018-03-07T22:49:17.815Z,3.10
2018-03-07T22:51:44.390Z,3.10
2018-03-07T22:54:11.942Z,3.10
2018-03-07T22:56:38.165Z,3.10
2018-03-07T22:59:04.872Z,3.20
2018-03-07T23:01:31.830Z,3.20
2018-03-07T23:03:59.220Z,3.20
2018-03-07T23:06:25.473Z,3.20
2018-03-07T23:08:52.418Z,3.20
2018-03-07T23:11:19.491Z,3.30
2018-03-07T23:13:46.563Z,3.40
2018-03-07T23:16:13.420Z,3.40
2018-03-07T23:18:39.636Z,3.40
2018-03-07T23:21:06.027Z,3.50
2018-03-07T23:23:33.499Z,3.50
2018-03-07T23:26:01.510Z,3.50
2018-03-07T23:28:28.532Z,3.60
2018-03-07T23:30:54.716Z,3.60
2018-03-07T23:33:21.490Z,3.50
2018-03-07T23:35:48.231Z,3.60
2018-03-07T23:38:14.943Z,3.50
2018-03-07T23:40:42.416Z,3.40
2018-03-07T23:43:09.984Z,3.40
2018-03-07T23:45:36.450Z,3.40
2018-03-07T23:48:04.068Z,3.40
2018-03-07T23:50:31.165Z,3.40
2018-03-07T23:52:58.619Z,3.30
2018-03-07T23:55:26.223Z,3.40
2018-03-07T23:57:53.885Z,3.40
